Time;durP1;ratioP1;P1;durP2;ratioP2;P2;SDS_P1;SDS_P2;PMS_P1;PMS_P2;Temp;Humidity;BMP_temperature;BMP_pressure;BME280_temperature;BME280_humidity;BME280_pressure;Samples;Min_cycle;Max_cycle;Signal;HPM_P1;HPM_P2
2021/12/12 00:01:12;;;;;;;61.35;30.77;;;;;;;;;;5054434;28;20037;-62
2021/12/12 00:03:41;;;;;;;62.70;28.13;;;;;;;;;;5072753;28;20107;-62
2021/12/12 00:06:09;;;;;;;55.42;28.30;;;;;;;;;;5072685;28;20104;-62
2021/12/12 00:08:36;;;;;;;56.20;29.20;;;;;;;;;;5072660;28;20056;-63
2021/12/12 00:11:05;;;;;;;56.15;28.30;;;;;;;;;;5072621;28;20075;-63
2021/12/12 00:13:38;;;;;;;59.83;28.65;;;;;;;;;;5054637;28;20123;-63
2021/12/12 00:16:04;;;;;;;50.28;26.70;;;;;;;;;;5072602;28;20032;-62
2021/12/12 00:18:30;;;;;;;49.55;25.33;;;;;;;;;;5072493;28;20108;-63
2021/12/12 00:20:57;;;;;;;46.92;24.73;;;;;;;;;;5072307;28;20036;-63
2021/12/12 00:23:23;;;;;;;43.63;24.30;;;;;;;;;;5072257;28;20107;-62
2021/12/12 00:25:52;;;;;;;50.83;26.13;;;;;;;;;;5072552;28;20024;-62
2021/12/12 00:28:21;;;;;;;50.97;27.58;;;;;;;;;;5054517;28;20040;-62
2021/12/12 00:30:48;;;;;;;45.72;24.27;;;;;;;;;;5073867;28;20024;-62
2021/12/12 00:33:14;;;;;;;48.05;24.88;;;;;;;;;;5075899;28;20024;-62
2021/12/12 00:35:41;;;;;;;46.47;23.80;;;;;;;;;;5075879;28;20384;-62
2021/12/12 00:38:11;;;;;;;44.03;22.95;;;;;;;;;;5076193;28;20103;-62
2021/12/12 00:40:41;;;;;;;43.47;23.30;;;;;;;;;;5057998;28;20139;-62
2021/12/12 00:43:12;;;;;;;46.88;25.30;;;;;;;;;;5075646;28;20025;-63
2021/12/12 00:45:38;;;;;;;47.40;24.88;;;;;;;;;;5076250;28;20056;-62
2021/12/12 00:48:05;;;;;;;47.10;25.35;;;;;;;;;;5076127;28;20039;-63
2021/12/12 00:50:34;;;;;;;49.25;24.38;;;;;;;;;;5076074;28;20052;-62
2021/12/12 00:53:01;;;;;;;43.78;23.23;;;;;;;;;;5076060;28;20107;-62
2021/12/12 00:55:27;;;;;;;47.83;23.73;;;;;;;;;;5076020;28;20037;-63
2021/12/12 00:57:54;;;;;;;42.65;22.75;;;;;;;;;;5075614;28;20456;-62
2021/12/12 01:00:25;;;;;;;40.78;23.05;;;;;;;;;;5075918;28;20028;-62
2021/12/12 01:02:52;;;;;;;43.80;22.63;;;;;;;;;;5075927;28;20063;-62
2021/12/12 01:05:19;;;;;;;46.30;24.02;;;;;;;;;;5075818;28;20047;-62
2021/12/12 01:07:47;;;;;;;48.97;24.27;;;;;;;;;;5075789;28;20024;-63
2021/12/12 01:10:31;;;;;;;43.97;23.25;;;;;;;;;;5075763;28;20381;-62
2021/12/12 01:12:58;;;;;;;44.30;24.08;;;;;;;;;;5075962;28;20024;-62
2021/12/12 01:15:24;;;;;;;47.38;23.75;;;;;;;;;;5075644;28;20481;-62
2021/12/12 01:17:55;;;;;;;52.28;25.10;;;;;;;;;;5075470;28;20556;-62
2021/12/12 01:20:26;;;;;;;42.25;23.65;;;;;;;;;;5057659;28;20033;-62
2021/12/12 01:22:54;;;;;;;51.57;23.80;;;;;;;;;;5075592;28;20105;-62
2021/12/12 01:25:29;;;;;;;46.67;25.15;;;;;;;;;;5075454;28;20250;-62
2021/12/12 01:27:56;;;;;;;51.33;25.45;;;;;;;;;;5075419;28;20113;-62
2021/12/12 01:30:22;;;;;;;47.60;25.02;;;;;;;;;;5057155;28;20111;-62
2021/12/12 01:32:49;;;;;;;53.85;25.67;;;;;;;;;;5057304;28;20419;-62
2021/12/12 01:35:18;;;;;;;49.25;24.70;;;;;;;;;;5057340;28;20441;-62
2021/12/12 01:38:50;;;;;;;48.53;25.45;;;;;;;;;;5075193;28;20025;-62
2021/12/12 01:40:34;;;;;;;52.17;25.05;;;;;;;;;;5074667;28;20443;-62
2021/12/12 01:43:05;;;;;;;51.45;25.90;;;;;;;;;;5056767;28;20046;-63
2021/12/12 01:45:38;;;;;;;43.00;22.65;;;;;;;;;;5057110;28;20477;-62
2021/12/12 01:48:04;;;;;;;45.75;23.35;;;;;;;;;;5075061;28;20056;-63
2021/12/12 01:50:33;;;;;;;48.00;23.77;;;;;;;;;;5056849;28;20076;-62
2021/12/12 01:53:00;;;;;;;48.90;24.98;;;;;;;;;;5074940;28;20032;-62
2021/12/12 01:55:28;;;;;;;45.33;22.48;;;;;;;;;;5074600;28;20400;-62
2021/12/12 01:57:56;;;;;;;41.97;22.58;;;;;;;;;;5074768;28;20036;-62
2021/12/12 02:00:52;;;;;;;45.50;23.23;;;;;;;;;;5074790;28;20036;-62
2021/12/12 02:03:20;;;;;;;39.55;21.50;;;;;;;;;;5053545;28;20423;-62
2021/12/12 02:05:46;;;;;;;39.65;20.15;;;;;;;;;;5074727;28;20020;-62
2021/12/12 02:08:14;;;;;;;39.67;21.67;;;;;;;;;;5074904;28;20111;-62
2021/12/12 02:10:42;;;;;;;40.03;22.15;;;;;;;;;;5056662;28;20479;-62
2021/12/12 02:13:11;;;;;;;42.35;21.92;;;;;;;;;;5074771;28;20103;-62
2021/12/12 02:15:38;;;;;;;47.95;25.35;;;;;;;;;;5074502;28;20119;-62
2021/12/12 02:18:09;;;;;;;41.13;21.58;;;;;;;;;;5074388;28;20461;-63
2021/12/12 02:20:41;;;;;;;43.35;23.13;;;;;;;;;;5074433;28;20024;-62
2021/12/12 02:23:24;;;;;;;40.88;21.65;;;;;;;;;;5074376;28;20068;-62
2021/12/12 02:36:57;;;;;;;48.15;23.50;;;;;;;;;;5074061;28;20051;-62
2021/12/12 02:39:23;;;;;;;49.15;23.95;;;;;;;;;;5073714;28;20388;-63
2021/12/12 02:41:51;;;;;;;46.47;23.58;;;;;;;;;;5073990;28;20067;-62
2021/12/12 02:44:22;;;;;;;47.15;23.00;;;;;;;;;;5073896;28;20032;-62
2021/12/12 02:46:49;;;;;;;48.78;23.27;;;;;;;;;;5055951;28;20116;-63
2021/12/12 02:52:00;;;;;;;44.13;22.17;;;;;;;;;;5073974;28;20579;-62
2021/12/12 02:54:26;;;;;;;42.33;22.75;;;;;;;;;;5055059;28;20107;-62
2021/12/12 02:56:53;;;;;;;45.15;21.88;;;;;;;;;;5073572;28;20107;-62
2021/12/12 02:59:22;;;;;;;46.47;22.60;;;;;;;;;;5073612;28;20024;-63
2021/12/12 03:01:52;;;;;;;41.05;20.15;;;;;;;;;;5055608;28;20029;-63
2021/12/12 03:04:22;;;;;;;44.17;21.33;;;;;;;;;;5055679;28;20024;-63
2021/12/12 03:06:48;;;;;;;41.03;21.48;;;;;;;;;;5073210;28;20453;-62
2021/12/12 03:09:15;;;;;;;39.17;19.67;;;;;;;;;;5073486;28;20074;-62
2021/12/12 03:11:41;;;;;;;41.40;21.00;;;;;;;;;;5073430;28;20487;-62
2021/12/12 03:14:08;;;;;;;39.20;19.40;;;;;;;;;;5073414;28;20107;-63
2021/12/12 03:16:34;;;;;;;41.95;20.50;;;;;;;;;;5055103;28;20142;-63
2021/12/12 03:19:01;;;;;;;42.38;20.58;;;;;;;;;;5073241;28;20111;-63
2021/12/12 03:21:31;;;;;;;38.85;19.92;;;;;;;;;;5073345;28;20032;-63
2021/12/12 03:23:58;;;;;;;40.63;19.73;;;;;;;;;;5073267;28;20047;-62
2021/12/12 03:26:25;;;;;;;37.65;20.35;;;;;;;;;;5073245;28;20071;-62
2021/12/12 03:28:52;;;;;;;39.45;19.30;;;;;;;;;;5073232;28;20025;-62
2021/12/12 03:31:23;;;;;;;41.25;19.13;;;;;;;;;;5055010;28;20025;-62
2021/12/12 03:33:50;;;;;;;35.13;19.58;;;;;;;;;;5073154;28;20157;-62
2021/12/12 03:36:16;;;;;;;45.33;21.27;;;;;;;;;;5073067;28;20028;-62
2021/12/12 03:38:45;;;;;;;39.38;19.92;;;;;;;;;;5073045;28;20457;-62
2021/12/12 03:41:13;;;;;;;36.25;18.85;;;;;;;;;;5073365;28;20028;-62
2021/12/12 03:43:39;;;;;;;39.42;20.40;;;;;;;;;;5073061;28;20141;-62
2021/12/12 03:46:10;;;;;;;40.03;21.33;;;;;;;;;;5073253;28;20462;-62
2021/12/12 03:48:40;;;;;;;41.72;19.88;;;;;;;;;;5055071;28;20031;-62
2021/12/12 03:51:08;;;;;;;44.40;21.55;;;;;;;;;;5072524;28;20102;-62
2021/12/12 03:53:35;;;;;;;44.35;21.50;;;;;;;;;;5072726;28;20148;-62
2021/12/12 03:56:01;;;;;;;43.70;21.50;;;;;;;;;;5054910;28;20047;-62
2021/12/12 03:58:28;;;;;;;41.45;20.23;;;;;;;;;;5072784;28;20151;-62
2021/12/12 04:00:58;;;;;;;52.60;24.48;;;;;;;;;;5072917;28;20035;-62
2021/12/12 04:03:25;;;;;;;44.75;22.83;;;;;;;;;;5054949;28;20035;-62
2021/12/12 04:05:53;;;;;;;49.25;24.50;;;;;;;;;;5076106;28;20024;-62
2021/12/12 04:08:24;;;;;;;46.10;22.63;;;;;;;;;;5076688;28;20068;-62
2021/12/12 04:10:50;;;;;;;46.72;22.20;;;;;;;;;;5076911;28;20108;-62
2021/12/12 04:13:16;;;;;;;50.97;23.55;;;;;;;;;;5076898;28;20062;-62
2021/12/12 04:15:43;;;;;;;49.15;23.38;;;;;;;;;;5076786;28;20032;-62
2021/12/12 04:18:09;;;;;;;49.85;23.98;;;;;;;;;;5076696;28;20024;-62
2021/12/12 04:20:38;;;;;;;45.13;24.00;;;;;;;;;;5076419;28;20457;-61
2021/12/12 04:23:14;;;;;;;55.05;25.45;;;;;;;;;;5076738;28;20017;-62
2021/12/12 04:25:40;;;;;;;50.42;24.88;;;;;;;;;;5076654;28;20059;-62
2021/12/12 04:28:06;;;;;;;58.40;26.73;;;;;;;;;;5058565;28;20384;-62
2021/12/12 04:30:34;;;;;;;53.15;25.70;;;;;;;;;;5076491;28;20108;-62
2021/12/12 04:33:00;;;;;;;55.28;26.15;;;;;;;;;;5076518;28;20025;-62
2021/12/12 04:35:28;;;;;;;57.92;26.20;;;;;;;;;;5076419;28;20115;-62
2021/12/12 04:37:55;;;;;;;53.53;25.88;;;;;;;;;;5076430;28;20115;-62
2021/12/12 04:40:24;;;;;;;51.75;25.25;;;;;;;;;;5058386;28;20502;-62
2021/12/12 04:42:53;;;;;;;51.67;25.67;;;;;;;;;;5075993;28;20025;-62
2021/12/12 04:45:41;;;;;;;57.90;26.55;;;;;;;;;;5076158;28;20020;-62
2021/12/12 04:51:25;;;;;;;53.38;25.25;;;;;;;;;;5075685;28;20107;-62
2021/12/12 04:54:01;;;;;;;53.28;25.00;;;;;;;;;;5071562;28;20040;-62
2021/12/12 04:56:30;;;;;;;51.10;24.77;;;;;;;;;;5076036;28;20029;-62
2021/12/12 04:59:03;;;;;;;55.13;27.02;;;;;;;;;;5057927;28;20381;-62
2021/12/12 05:01:38;;;;;;;58.92;26.70;;;;;;;;;;5075905;28;20029;-62
2021/12/12 05:04:11;;;;;;;52.65;25.77;;;;;;;;;;5076205;28;20031;-62
2021/12/12 05:06:37;;;;;;;57.97;28.27;;;;;;;;;;5075852;28;20031;-62
2021/12/12 05:09:22;;;;;;;66.97;31.52;;;;;;;;;;5075769;28;20119;-62
2021/12/12 05:12:12;;;;;;;59.20;29.42;;;;;;;;;;5057731;28;20027;-62
2021/12/12 05:14:40;;;;;;;59.97;28.88;;;;;;;;;;5062730;28;20040;-62
2021/12/12 05:17:10;;;;;;;64.63;28.95;;;;;;;;;;5056769;28;20020;-62
2021/12/12 05:19:39;;;;;;;62.30;30.90;;;;;;;;;;5075672;28;20248;-62
2021/12/12 05:22:09;;;;;;;61.75;29.92;;;;;;;;;;5075579;28;20032;-62
2021/12/12 05:24:36;;;;;;;62.63;29.00;;;;;;;;;;5075494;28;20032;-62
2021/12/12 05:27:05;;;;;;;67.53;29.70;;;;;;;;;;5075443;28;20052;-62
2021/12/12 05:29:40;;;;;;;65.93;30.38;;;;;;;;;;5075425;28;20031;-62
2021/12/12 05:32:08;;;;;;;66.55;31.55;;;;;;;;;;5075395;28;20046;-61
2021/12/12 05:34:35;;;;;;;64.07;27.67;;;;;;;;;;5075310;28;20032;-62
2021/12/12 05:37:02;;;;;;;63.03;28.33;;;;;;;;;;5074946;28;20482;-62
2021/12/12 05:39:29;;;;;;;75.22;32.50;;;;;;;;;;5075213;28;20055;-62
2021/12/12 05:41:55;;;;;;;69.32;30.67;;;;;;;;;;5075193;28;20035;-62
2021/12/12 05:44:25;;;;;;;78.47;32.15;;;;;;;;;;5057136;28;20056;-62
2021/12/12 05:46:55;;;;;;;67.78;31.25;;;;;;;;;;5075064;28;20021;-62
2021/12/12 05:49:22;;;;;;;75.75;34.05;;;;;;;;;;5075072;28;20020;-62
2021/12/12 05:51:48;;;;;;;69.68;29.83;;;;;;;;;;5056558;28;20478;-62
2021/12/12 05:54:14;;;;;;;73.82;33.45;;;;;;;;;;5075223;28;20027;-62
2021/12/12 05:56:41;;;;;;;73.38;32.70;;;;;;;;;;5074896;28;20024;-62
2021/12/12 05:59:08;;;;;;;74.40;31.92;;;;;;;;;;5056781;28;20473;-62
2021/12/12 06:01:34;;;;;;;81.50;36.13;;;;;;;;;;5074787;28;20055;-62
2021/12/12 06:04:00;;;;;;;79.82;36.67;;;;;;;;;;5074806;28;20364;-61
2021/12/12 06:06:28;;;;;;;77.65;37.33;;;;;;;;;;5074951;28;20465;-62
2021/12/12 06:08:58;;;;;;;86.03;35.58;;;;;;;;;;5074684;28;20036;-62
2021/12/12 06:11:25;;;;;;;82.32;34.70;;;;;;;;;;5056929;28;20388;-62
2021/12/12 06:13:52;;;;;;;85.63;36.20;;;;;;;;;;5056568;28;20465;-62
2021/12/12 06:16:20;;;;;;;85.78;35.45;;;;;;;;;;5056536;28;20031;-61
2021/12/12 06:18:52;;;;;;;87.75;36.25;;;;;;;;;;5074102;28;20477;-61
2021/12/12 06:21:18;;;;;;;84.28;35.35;;;;;;;;;;5074333;28;20487;-62
2021/12/12 06:23:45;;;;;;;79.90;34.03;;;;;;;;;;5074102;28;20055;-62
2021/12/12 06:26:11;;;;;;;83.03;37.20;;;;;;;;;;5074320;28;20121;-62
2021/12/12 06:28:40;;;;;;;81.65;35.30;;;;;;;;;;5072869;28;20024;-62
2021/12/12 06:31:06;;;;;;;99.40;38.92;;;;;;;;;;5074136;28;20029;-61
2021/12/12 06:33:33;;;;;;;97.07;39.13;;;;;;;;;;5056199;28;20465;-62
2021/12/12 06:36:00;;;;;;;96.28;38.90;;;;;;;;;;5074117;28;20020;-62
2021/12/12 06:38:27;;;;;;;96.45;38.40;;;;;;;;;;5073665;28;20074;-62
2021/12/12 06:40:53;;;;;;;95.38;39.80;;;;;;;;;;5055796;28;20044;-61
2021/12/12 06:43:21;;;;;;;92.22;39.53;;;;;;;;;;5074235;28;20381;-62
2021/12/12 06:45:48;;;;;;;87.78;36.50;;;;;;;;;;5055942;28;20123;-62
2021/12/12 06:48:15;;;;;;;86.90;40.55;;;;;;;;;;5055902;28;20061;-61
2021/12/12 06:50:43;;;;;;;91.55;40.10;;;;;;;;;;5073386;28;20051;-61
2021/12/12 06:53:10;;;;;;;106.22;39.33;;;;;;;;;;5073709;28;20035;-61
2021/12/12 06:55:39;;;;;;;98.40;40.08;;;;;;;;;;5073750;28;20116;-61
2021/12/12 06:58:07;;;;;;;89.60;39.17;;;;;;;;;;5073437;28;20361;-62
2021/12/12 07:00:34;;;;;;;92.20;38.53;;;;;;;;;;5071986;28;20060;-62
2021/12/12 07:03:00;;;;;;;88.13;36.58;;;;;;;;;;5073246;28;20027;-62
2021/12/12 07:05:29;;;;;;;92.68;41.22;;;;;;;;;;5073406;28;20032;-62
2021/12/12 07:07:56;;;;;;;84.32;38.13;;;;;;;;;;5073160;28;20447;-62
2021/12/12 07:10:24;;;;;;;89.35;40.72;;;;;;;;;;5073285;28;20108;-62
2021/12/12 07:12:55;;;;;;;89.28;36.47;;;;;;;;;;5073583;28;20147;-62
2021/12/12 07:15:23;;;;;;;92.22;40.80;;;;;;;;;;5073386;28;20408;-61
2021/12/12 07:17:52;;;;;;;90.13;38.80;;;;;;;;;;5055227;28;20032;-62
2021/12/12 07:20:19;;;;;;;95.10;41.50;;;;;;;;;;5073119;28;20024;-62
2021/12/12 07:22:45;;;;;;;87.22;38.20;;;;;;;;;;5055271;28;20031;-62
2021/12/12 07:25:11;;;;;;;89.05;39.60;;;;;;;;;;5073104;28;20030;-62
2021/12/12 07:27:37;;;;;;;90.63;41.60;;;;;;;;;;5073131;28;20541;-62
2021/12/12 07:30:05;;;;;;;94.45;42.72;;;;;;;;;;5072020;28;20048;-62
2021/12/12 07:32:32;;;;;;;97.70;40.45;;;;;;;;;;5073015;28;20029;-63
2021/12/12 07:34:58;;;;;;;89.82;39.58;;;;;;;;;;5072967;28;20020;-63
2021/12/12 07:37:25;;;;;;;90.68;36.92;;;;;;;;;;5072875;28;20024;-62
2021/12/12 07:39:51;;;;;;;103.40;42.03;;;;;;;;;;5072632;28;20123;-62
2021/12/12 07:42:18;;;;;;;94.63;41.78;;;;;;;;;;5072514;28;20030;-62
2021/12/12 07:44:45;;;;;;;103.97;41.53;;;;;;;;;;5072728;28;20047;-62
2021/12/12 07:47:13;;;;;;;92.35;41.10;;;;;;;;;;5072573;28;20024;-62
2021/12/12 07:49:41;;;;;;;99.75;44.45;;;;;;;;;;5058247;28;20101;-62
2021/12/12 07:52:09;;;;;;;101.40;42.40;;;;;;;;;;5093057;28;20040;-62
2021/12/12 07:54:35;;;;;;;98.82;40.40;;;;;;;;;;5093118;28;20028;-62
2021/12/12 07:57:02;;;;;;;94.82;41.65;;;;;;;;;;5092915;28;20058;-63
2021/12/12 07:59:29;;;;;;;101.57;44.97;;;;;;;;;;5092698;28;20072;-62
2021/12/12 08:01:55;;;;;;;106.72;44.33;;;;;;;;;;5093008;28;20024;-62
2021/12/12 08:04:23;;;;;;;109.38;44.05;;;;;;;;;;5074735;28;20116;-62
2021/12/12 08:06:50;;;;;;;112.88;44.50;;;;;;;;;;5092887;28;20040;-62
2021/12/12 08:09:17;;;;;;;103.70;42.83;;;;;;;;;;5092874;28;20039;-62
2021/12/12 08:11:43;;;;;;;99.20;41.58;;;;;;;;;;5092799;28;20020;-62
2021/12/12 08:14:11;;;;;;;104.13;41.88;;;;;;;;;;5074698;28;20063;-63
2021/12/12 08:16:38;;;;;;;123.00;47.03;;;;;;;;;;5092864;28;20111;-62
2021/12/12 08:19:04;;;;;;;114.55;43.38;;;;;;;;;;5092782;28;20042;-62
2021/12/12 08:21:33;;;;;;;112.57;46.35;;;;;;;;;;5074492;28;20028;-63
2021/12/12 08:24:09;;;;;;;106.95;41.22;;;;;;;;;;5092303;28;20027;-63
2021/12/12 08:26:35;;;;;;;104.90;40.47;;;;;;;;;;5092872;28;20028;-62
2021/12/12 08:29:02;;;;;;;115.07;43.63;;;;;;;;;;5092791;28;20108;-63
2021/12/12 08:31:28;;;;;;;101.38;43.85;;;;;;;;;;5092460;28;20028;-61
2021/12/12 08:33:55;;;;;;;113.25;44.65;;;;;;;;;;5074675;28;20143;-62
2021/12/12 08:36:21;;;;;;;101.15;39.50;;;;;;;;;;5091951;28;20078;-63
2021/12/12 08:38:47;;;;;;;118.32;43.83;;;;;;;;;;5090668;28;20365;-63
2021/12/12 08:41:15;;;;;;;133.38;47.22;;;;;;;;;;5073778;28;20034;-63
2021/12/12 08:43:43;;;;;;;105.05;42.30;;;;;;;;;;5092999;28;20060;-64
2021/12/12 08:46:11;;;;;;;128.73;51.40;;;;;;;;;;5092629;28;20023;-63
2021/12/12 08:48:40;;;;;;;131.88;49.10;;;;;;;;;;5092640;28;20427;-63
2021/12/12 08:51:11;;;;;;;122.05;49.03;;;;;;;;;;5092404;28;20409;-62
2021/12/12 08:53:38;;;;;;;130.65;50.20;;;;;;;;;;5094867;28;20025;-63
2021/12/12 08:56:05;;;;;;;126.13;47.17;;;;;;;;;;5096279;28;20012;-63
2021/12/12 08:58:33;;;;;;;136.13;52.83;;;;;;;;;;5096204;28;20028;-63
2021/12/12 09:00:59;;;;;;;137.00;52.83;;;;;;;;;;5096160;28;20024;-63
2021/12/12 09:03:33;;;;;;;156.48;62.00;;;;;;;;;;5096447;28;20020;-63
2021/12/12 09:05:59;;;;;;;143.40;50.63;;;;;;;;;;5095827;28;20103;-63
2021/12/12 09:08:28;;;;;;;142.15;50.90;;;;;;;;;;5096306;28;20061;-63
2021/12/12 09:11:00;;;;;;;147.25;58.53;;;;;;;;;;5096042;28;20020;-63
2021/12/12 09:13:29;;;;;;;127.32;50.33;;;;;;;;;;5096011;28;20631;-63
2021/12/12 09:15:59;;;;;;;128.40;48.72;;;;;;;;;;5095886;28;20107;-63
2021/12/12 09:18:31;;;;;;;128.20;48.15;;;;;;;;;;5094033;28;20028;-63
2021/12/12 09:21:13;;;;;;;137.45;49.00;;;;;;;;;;5095104;28;20089;-63
2021/12/12 09:23:41;;;;;;;127.60;48.10;;;;;;;;;;5095764;28;20028;-62
2021/12/12 09:26:11;;;;;;;120.30;45.97;;;;;;;;;;5094867;28;20114;-62
2021/12/12 09:28:44;;;;;;;143.65;54.35;;;;;;;;;;5095127;28;20099;-63
2021/12/12 09:31:18;;;;;;;124.10;48.10;;;;;;;;;;5094328;28;20024;-63
2021/12/12 09:34:04;;;;;;;135.05;48.03;;;;;;;;;;5095339;28;20431;-62
2021/12/12 09:36:41;;;;;;;141.38;52.47;;;;;;;;;;5095426;28;20020;-62
2021/12/12 09:39:13;;;;;;;149.60;54.83;;;;;;;;;;5094156;28;20365;-63
2021/12/12 09:41:45;;;;;;;138.73;52.20;;;;;;;;;;5095472;28;20046;-62
2021/12/12 09:44:22;;;;;;;126.05;49.42;;;;;;;;;;5095385;28;20039;-62
2021/12/12 09:47:27;;;;;;;134.23;51.58;;;;;;;;;;5095155;28;20099;-62
2021/12/12 09:52:54;;;;;;;110.47;45.20;;;;;;;;;;5095018;28;20148;-63
2021/12/12 09:55:35;;;;;;;145.82;53.45;;;;;;;;;;5095095;28;20020;-63
2021/12/12 09:58:15;;;;;;;118.00;45.20;;;;;;;;;;5094954;28;20028;-63
2021/12/12 10:00:42;;;;;;;126.93;49.15;;;;;;;;;;5093589;28;20462;-63
2021/12/12 10:03:09;;;;;;;107.05;40.40;;;;;;;;;;5094591;28;20024;-62
2021/12/12 10:05:53;;;;;;;117.65;43.05;;;;;;;;;;5094988;28;20024;-63
2021/12/12 10:08:31;;;;;;;93.93;38.42;;;;;;;;;;5092702;28;20020;-64
2021/12/12 10:11:05;;;;;;;107.65;41.80;;;;;;;;;;5093261;28;20168;-65
2021/12/12 10:13:40;;;;;;;118.35;45.83;;;;;;;;;;5092198;28;20093;-64
2021/12/12 10:16:13;;;;;;;109.43;44.60;;;;;;;;;;5092455;28;20520;-64
2021/12/12 10:18:50;;;;;;;116.93;45.63;;;;;;;;;;5093898;28;20114;-64
2021/12/12 10:21:21;;;;;;;115.60;46.72;;;;;;;;;;5091359;28;20103;-64
2021/12/12 10:23:56;;;;;;;109.55;42.70;;;;;;;;;;5094281;28;20105;-64
2021/12/12 10:26:29;;;;;;;106.38;40.83;;;;;;;;;;5094147;28;20064;-64
2021/12/12 10:29:00;;;;;;;118.57;45.05;;;;;;;;;;5092547;28;20024;-64
2021/12/12 10:31:42;;;;;;;99.88;42.30;;;;;;;;;;5092946;28;20024;-64
2021/12/12 10:34:15;;;;;;;104.60;40.95;;;;;;;;;;5094150;28;20026;-62
2021/12/12 10:37:03;;;;;;;98.70;40.83;;;;;;;;;;5092578;28;20028;-64
2021/12/12 10:39:38;;;;;;;112.03;45.22;;;;;;;;;;5094115;28;20142;-63
2021/12/12 10:42:08;;;;;;;124.90;50.03;;;;;;;;;;5092855;28;20544;-63
2021/12/12 10:44:41;;;;;;;113.65;43.90;;;;;;;;;;5094163;28;20024;-64
2021/12/12 10:47:16;;;;;;;101.78;42.45;;;;;;;;;;5094254;28;20111;-64
2021/12/12 10:49:58;;;;;;;105.50;43.00;;;;;;;;;;5092290;28;20058;-64
2021/12/12 10:52:33;;;;;;;121.35;45.33;;;;;;;;;;5092405;28;20037;-63
2021/12/12 10:55:09;;;;;;;109.15;43.17;;;;;;;;;;5093601;28;20020;-64
2021/12/12 10:57:37;;;;;;;110.47;41.38;;;;;;;;;;5093682;28;20107;-63
2021/12/12 11:00:22;;;;;;;100.15;39.03;;;;;;;;;;5092486;28;20032;-62
2021/12/12 11:02:55;;;;;;;100.93;40.42;;;;;;;;;;5092342;28;20027;-62
2021/12/12 11:05:25;;;;;;;99.65;40.60;;;;;;;;;;5093238;28;20469;-62
2021/12/12 11:07:59;;;;;;;108.72;42.92;;;;;;;;;;5093184;28;20413;-62
2021/12/12 11:10:30;;;;;;;101.82;44.22;;;;;;;;;;5093389;28;20016;-62
2021/12/12 11:13:03;;;;;;;82.65;37.13;;;;;;;;;;5092055;28;20054;-63
2021/12/12 11:15:44;;;;;;;103.35;41.42;;;;;;;;;;5092700;28;20047;-62
2021/12/12 11:18:19;;;;;;;98.22;42.42;;;;;;;;;;5093270;28;20111;-62
2021/12/12 11:20:49;;;;;;;100.65;40.72;;;;;;;;;;5092286;28;20115;-62
2021/12/12 11:23:26;;;;;;;99.72;41.70;;;;;;;;;;5093329;28;20372;-62
2021/12/12 11:25:58;;;;;;;105.30;43.13;;;;;;;;;;5093408;28;20154;-62
2021/12/12 11:28:27;;;;;;;114.03;45.95;;;;;;;;;;5093407;28;20063;-61
2021/12/12 11:30:56;;;;;;;92.05;43.00;;;;;;;;;;5093368;28;20418;-62
2021/12/12 11:33:23;;;;;;;127.78;46.53;;;;;;;;;;5091805;28;20024;-61
2021/12/12 11:35:52;;;;;;;117.47;48.17;;;;;;;;;;5093298;28;20021;-62
2021/12/12 11:38:36;;;;;;;105.93;42.83;;;;;;;;;;5093035;28;20071;-62
2021/12/12 11:41:15;;;;;;;96.93;39.25;;;;;;;;;;5093531;28;20055;-62
2021/12/12 11:44:00;;;;;;;91.35;38.05;;;;;;;;;;5093417;28;20024;-62
2021/12/12 11:46:32;;;;;;;86.63;37.53;;;;;;;;;;5093293;28;20520;-63
2021/12/12 11:49:11;;;;;;;82.75;37.33;;;;;;;;;;5093492;28;20107;-62
2021/12/12 11:51:43;;;;;;;88.43;36.83;;;;;;;;;;5093225;28;20040;-63
2021/12/12 11:54:28;;;;;;;86.80;34.17;;;;;;;;;;5093147;28;20024;-63
2021/12/12 11:57:05;;;;;;;89.93;40.97;;;;;;;;;;5093222;28;20032;-62
2021/12/12 11:59:41;;;;;;;85.82;35.63;;;;;;;;;;5091050;28;20107;-62
2021/12/12 12:02:26;;;;;;;82.70;34.28;;;;;;;;;;5091030;28;20365;-62
2021/12/12 12:05:08;;;;;;;85.07;38.22;;;;;;;;;;5092825;28;20520;-62
2021/12/12 12:07:36;;;;;;;73.15;33.47;;;;;;;;;;5092740;28;20059;-62
2021/12/12 12:10:05;;;;;;;82.45;36.78;;;;;;;;;;5091478;28;20039;-61
2021/12/12 12:12:37;;;;;;;83.35;36.05;;;;;;;;;;5092645;28;20091;-64
2021/12/12 12:15:13;;;;;;;91.88;38.10;;;;;;;;;;5091548;28;20023;-63
2021/12/12 12:17:42;;;;;;;77.75;33.85;;;;;;;;;;5091372;28;20025;-63
2021/12/12 12:20:17;;;;;;;79.43;34.95;;;;;;;;;;5091300;28;20081;-63
2021/12/12 12:22:47;;;;;;;76.05;35.13;;;;;;;;;;5092720;28;20047;-64
2021/12/12 12:26:50;;;;;;;71.03;32.63;;;;;;;;;;5093066;28;20020;-64
2021/12/12 12:28:18;;;;;;;80.35;34.92;;;;;;;;;;5096241;28;20071;-64
2021/12/12 12:31:03;;;;;;;87.40;38.85;;;;;;;;;;5096728;28;20024;-61
2021/12/12 12:33:52;;;;;;;81.45;36.30;;;;;;;;;;5094926;28;20066;-61
2021/12/12 12:36:24;;;;;;;90.15;37.92;;;;;;;;;;5094072;28;20217;-64
2021/12/12 12:39:13;;;;;;;77.93;36.63;;;;;;;;;;5096095;28;20161;-62
2021/12/12 12:41:58;;;;;;;83.07;37.40;;;;;;;;;;5096221;28;20121;-65
2021/12/12 12:44:43;;;;;;;76.10;35.80;;;;;;;;;;5096679;28;20032;-64
2021/12/12 12:47:44;;;;;;;71.55;34.13;;;;;;;;;;5095043;28;20024;-64
2021/12/12 12:50:29;;;;;;;65.05;32.75;;;;;;;;;;5013664;28;20141;-62
2021/12/12 12:53:04;;;;;;;75.35;35.67;;;;;;;;;;5089894;28;20127;-62
2021/12/12 12:55:31;;;;;;;70.00;31.02;;;;;;;;;;5096120;28;20024;-62
2021/12/12 12:58:06;;;;;;;59.60;29.92;;;;;;;;;;5093554;28;20035;-63
2021/12/12 13:00:33;;;;;;;55.65;28.92;;;;;;;;;;5094546;28;20486;-62
2021/12/12 13:03:16;;;;;;;70.40;31.40;;;;;;;;;;5094085;28;20031;-62
2021/12/12 13:05:49;;;;;;;71.63;33.22;;;;;;;;;;5096020;28;20027;-64
2021/12/12 13:08:33;;;;;;;59.55;28.98;;;;;;;;;;5095955;28;20032;-61
2021/12/12 13:11:01;;;;;;;60.90;30.58;;;;;;;;;;5095932;28;20048;-64
2021/12/12 13:13:32;;;;;;;65.18;33.08;;;;;;;;;;5095795;28;20028;-61
2021/12/12 13:16:04;;;;;;;71.57;31.80;;;;;;;;;;5095962;28;20059;-64
2021/12/12 13:18:31;;;;;;;70.75;33.10;;;;;;;;;;5095232;28;20280;-62
2021/12/12 13:21:15;;;;;;;58.00;29.00;;;;;;;;;;5094068;28;20038;-62
2021/12/12 13:24:00;;;;;;;73.57;32.55;;;;;;;;;;5095843;28;20028;-63
2021/12/12 13:26:47;;;;;;;64.68;29.77;;;;;;;;;;5096114;28;20094;-63
2021/12/12 13:29:36;;;;;;;69.82;32.35;;;;;;;;;;5095818;28;20093;-63
2021/12/12 13:32:13;;;;;;;62.78;31.23;;;;;;;;;;5094434;28;20028;-61
2021/12/12 13:34:46;;;;;;;63.63;31.77;;;;;;;;;;5093608;28;20093;-61
2021/12/12 13:37:24;;;;;;;61.95;31.05;;;;;;;;;;5093653;28;20035;-63
2021/12/12 13:39:58;;;;;;;65.88;29.63;;;;;;;;;;5094323;28;20032;-64
2021/12/12 13:42:43;;;;;;;63.97;30.60;;;;;;;;;;5095552;28;20016;-63
2021/12/12 13:45:09;;;;;;;63.67;31.05;;;;;;;;;;5093311;28;20023;-63
2021/12/12 13:47:54;;;;;;;64.40;30.52;;;;;;;;;;5092629;28;20357;-61
2021/12/12 13:50:28;;;;;;;53.30;27.20;;;;;;;;;;5093551;28;20052;-62
2021/12/12 13:52:58;;;;;;;71.43;31.85;;;;;;;;;;5094828;28;20027;-63
2021/12/12 13:55:30;;;;;;;60.90;31.48;;;;;;;;;;5094476;28;20055;-63
2021/12/12 13:58:17;;;;;;;55.63;29.05;;;;;;;;;;5095207;28;20024;-63
2021/12/12 14:00:57;;;;;;;58.55;31.50;;;;;;;;;;5095098;28;20123;-61
2021/12/12 14:03:33;;;;;;;51.13;27.85;;;;;;;;;;5094739;28;20027;-61
2021/12/12 14:06:01;;;;;;;59.45;29.05;;;;;;;;;;5093108;28;20028;-61
2021/12/12 14:08:30;;;;;;;54.47;29.83;;;;;;;;;;5094675;28;20063;-61
2021/12/12 14:10:57;;;;;;;64.72;32.72;;;;;;;;;;5094705;28;20103;-61
2021/12/12 14:13:25;;;;;;;57.35;30.95;;;;;;;;;;5094278;28;20031;-61
2021/12/12 14:16:02;;;;;;;65.55;33.35;;;;;;;;;;5094639;28;20028;-62
2021/12/12 14:18:31;;;;;;;62.95;31.33;;;;;;;;;;5094633;28;20529;-62
2021/12/12 14:20:57;;;;;;;68.25;32.65;;;;;;;;;;5094513;28;20024;-62
2021/12/12 14:23:25;;;;;;;53.00;28.58;;;;;;;;;;5085551;28;20039;-62
2021/12/12 14:25:57;;;;;;;60.90;31.08;;;;;;;;;;5084054;28;20028;-61
2021/12/12 14:28:24;;;;;;;65.30;34.80;;;;;;;;;;5082393;28;20031;-62
2021/12/12 14:30:53;;;;;;;64.70;33.80;;;;;;;;;;5081849;28;20034;-62
2021/12/12 14:33:24;;;;;;;67.35;34.20;;;;;;;;;;5090691;28;20111;-62
2021/12/12 14:35:56;;;;;;;65.82;34.40;;;;;;;;;;5092258;28;20487;-62
2021/12/12 14:38:23;;;;;;;60.60;31.00;;;;;;;;;;5090761;28;20032;-61
2021/12/12 14:40:55;;;;;;;65.50;32.85;;;;;;;;;;5091946;28;20107;-61
2021/12/12 14:43:32;;;;;;;61.17;32.78;;;;;;;;;;5093287;28;20027;-62
2021/12/12 14:45:59;;;;;;;66.00;32.55;;;;;;;;;;5090712;28;20381;-60
2021/12/12 14:48:38;;;;;;;64.38;34.10;;;;;;;;;;5093464;28;20097;-61
2021/12/12 14:51:10;;;;;;;67.65;33.95;;;;;;;;;;5093800;28;20052;-63
2021/12/12 14:53:43;;;;;;;63.22;32.72;;;;;;;;;;5093825;28;20103;-63
2021/12/12 14:56:30;;;;;;;62.60;32.25;;;;;;;;;;5093687;28;20042;-63